Aviation Digital Data Service (ADDS)

Output produced by METARs form (0321 UTC 20 March 2019)
found at http://www.aviationweather.gov/metar/data/
 
METAR text: ROAH 200300Z 17013KT 9999 FEW025 SCT030 23/15 Q1016 RMK 1CU025 4SC030 A3000
Conditions at: ROAH (NAHA (CIV/JASDF), JP) observed 0300 UTC 20 March 2019
Temperature: 23.0°C (73°F)
Dewpoint: 15.0°C (59°F) [RH = 61%]
Pressure (altimeter): 30.00 inches Hg (1016.0 mb)
Winds: from the S (170 degrees) at 15 MPH (13 knots; 6.7 m/s)
Visibility: 6 or more miles (10+ km)
Ceiling: at least 12,000 feet AGL
Clouds: few clouds at 2500 feet AGL
scattered clouds at 3000 feet AGL
Weather: no significant weather observed at this time

METAR text: ROAH 200230Z 14011KT 9999 FEW025 SCT030 23/14 Q1016 RMK 1CU025 3SC030 A3001
Conditions at: ROAH (NAHA (CIV/JASDF), JP) observed 0230 UTC 20 March 2019
Temperature: 23.0°C (73°F)
Dewpoint: 14.0°C (57°F) [RH = 57%]
Pressure (altimeter): 30.00 inches Hg (1016.0 mb)
Winds: from the SE (140 degrees) at 13 MPH (11 knots; 5.7 m/s)
Visibility: 6 or more miles (10+ km)
Ceiling: at least 12,000 feet AGL
Clouds: few clouds at 2500 feet AGL
scattered clouds at 3000 feet AGL
Weather: no significant weather observed at this time

METAR text: ROAH 200200Z 15010KT 110V180 9999 FEW025 SCT030 22/14 Q1016 RMK 1CU025 3SC030 A3003
Conditions at: ROAH (NAHA (CIV/JASDF), JP) observed 0200 UTC 20 March 2019
Temperature: 22.0°C (72°F)
Dewpoint: 14.0°C (57°F) [RH = 60%]
Pressure (altimeter): 30.00 inches Hg (1016.0 mb)
Winds: from the SSE (150 degrees) at 12 MPH (10 knots; 5.1 m/s)
Visibility: 6 or more miles (10+ km)
Ceiling: at least 12,000 feet AGL
Clouds: few clouds at 2500 feet AGL
scattered clouds at 3000 feet AGL
Weather: no significant weather observed at this time

METAR text: ROAH 200130Z 14010KT 110V170 9999 FEW025 22/14 Q1017 RMK 2CU025 A3003
Conditions at: ROAH (NAHA (CIV/JASDF), JP) observed 0130 UTC 20 March 2019
Temperature: 22.0°C (72°F)
Dewpoint: 14.0°C (57°F) [RH = 60%]
Pressure (altimeter): 30.03 inches Hg (1017.0 mb)
Winds: from the SE (140 degrees) at 12 MPH (10 knots; 5.1 m/s)
Visibility: 6 or more miles (10+ km)
Ceiling: at least 12,000 feet AGL
Clouds: few clouds at 2500 feet AGL
Weather: no significant weather observed at this time

METAR text: ROAH 200100Z 13007KT 100V170 9999 FEW030 22/14 Q1017 RMK 1CU030 A3004
Conditions at: ROAH (NAHA (CIV/JASDF), JP) observed 0100 UTC 20 March 2019
Temperature: 22.0°C (72°F)
Dewpoint: 14.0°C (57°F) [RH = 60%]
Pressure (altimeter): 30.03 inches Hg (1017.0 mb)
Winds: from the SE (130 degrees) at 8 MPH (7 knots; 3.6 m/s)
Visibility: 6 or more miles (10+ km)
Ceiling: at least 12,000 feet AGL
Clouds: few clouds at 3000 feet AGL
Weather: no significant weather observed at this time

METAR text: ROAH 200030Z 13009KT 080V160 9999 FEW030 22/13 Q1017 RMK 1CU030 A3004
Conditions at: ROAH (NAHA (CIV/JASDF), JP) observed 0030 UTC 20 March 2019
Temperature: 22.0°C (72°F)
Dewpoint: 13.0°C (55°F) [RH = 57%]
Pressure (altimeter): 30.03 inches Hg (1017.0 mb)
Winds: from the SE (130 degrees) at 10 MPH (9 knots; 4.6 m/s)
Visibility: 6 or more miles (10+ km)
Ceiling: at least 12,000 feet AGL
Clouds: few clouds at 3000 feet AGL
Weather: no significant weather observed at this time

METAR text: ROAH 200000Z 11006KT 9999 FEW030 21/13 Q1017 RMK 1CU030 A3003
Conditions at: ROAH (NAHA (CIV/JASDF), JP) observed 0000 UTC 20 March 2019
Temperature: 21.0°C (70°F)
Dewpoint: 13.0°C (55°F) [RH = 60%]
Pressure (altimeter): 30.03 inches Hg (1017.0 mb)
Winds: from the ESE (110 degrees) at 7 MPH (6 knots; 3.1 m/s)
Visibility: 6 or more miles (10+ km)
Ceiling: at least 12,000 feet AGL
Clouds: few clouds at 3000 feet AGL
Weather: no significant weather observed at this time

METAR text: ROAH 192330Z 11005KT 9999 FEW030 20/13 Q1017 RMK 1CU030 A3004
Conditions at: ROAH (NAHA (CIV/JASDF), JP) observed 2330 UTC 19 March 2019
Temperature: 20.0°C (68°F)
Dewpoint: 13.0°C (55°F) [RH = 64%]
Pressure (altimeter): 30.03 inches Hg (1017.0 mb)
Winds: from the ESE (110 degrees) at 6 MPH (5 knots; 2.6 m/s)
Visibility: 6 or more miles (10+ km)
Ceiling: at least 12,000 feet AGL
Clouds: few clouds at 3000 feet AGL
Weather: no significant weather observed at this time

METAR text: ROAH 192300Z VRB02KT 9999 FEW030 19/13 Q1017 RMK 1CU030 A3004
Conditions at: ROAH (NAHA (CIV/JASDF), JP) observed 2300 UTC 19 March 2019
Temperature: 19.0°C (66°F)
Dewpoint: 13.0°C (55°F) [RH = 68%]
Pressure (altimeter): 30.03 inches Hg (1017.0 mb)
Winds: variable direction winds at 2 MPH (2 knots; 1.0 m/s)
Visibility: 6 or more miles (10+ km)
Ceiling: at least 12,000 feet AGL
Clouds: few clouds at 3000 feet AGL
Weather: no significant weather observed at this time

METAR text: ROAH 192230Z VRB01KT 9999 FEW030 17/13 Q1017 RMK 1CU030 A3004
Conditions at: ROAH (NAHA (CIV/JASDF), JP) observed 2230 UTC 19 March 2019
Temperature: 17.0°C (63°F)
Dewpoint: 13.0°C (55°F) [RH = 77%]
Pressure (altimeter): 30.03 inches Hg (1017.0 mb)
Winds: variable direction winds at 1 MPH (1 knots; 0.5 m/s)
Visibility: 6 or more miles (10+ km)
Ceiling: at least 12,000 feet AGL
Clouds: few clouds at 3000 feet AGL
Weather: no significant weather observed at this time

METAR text: ROAH 192200Z 16002KT 9999 FEW030 17/12 Q1017 RMK 1CU030 A3003
Conditions at: ROAH (NAHA (CIV/JASDF), JP) observed 2200 UTC 19 March 2019
Temperature: 17.0°C (63°F)
Dewpoint: 12.0°C (54°F) [RH = 72%]
Pressure (altimeter): 30.03 inches Hg (1017.0 mb)
Winds: from the SSE (160 degrees) at 2 MPH (2 knots; 1.0 m/s)
Visibility: 6 or more miles (10+ km)
Ceiling: at least 12,000 feet AGL
Clouds: few clouds at 3000 feet AGL
Weather: no significant weather observed at this time

METAR text: ROAH 192130Z 05002KT 9999 FEW030 17/12 Q1016 RMK 1CU030 A3003
Conditions at: ROAH (NAHA (CIV/JASDF), JP) observed 2130 UTC 19 March 2019
Temperature: 17.0°C (63°F)
Dewpoint: 12.0°C (54°F) [RH = 72%]
Pressure (altimeter): 30.00 inches Hg (1016.0 mb)
Winds: from the NE (50 degrees) at 2 MPH (2 knots; 1.0 m/s)
Visibility: 6 or more miles (10+ km)
Ceiling: at least 12,000 feet AGL
Clouds: few clouds at 3000 feet AGL
Weather: no significant weather observed at this time

METAR text: ROAH 192100Z 04003KT 9999 FEW030 17/12 Q1016 RMK 1CU030 A3003
Conditions at: ROAH (NAHA (CIV/JASDF), JP) observed 2100 UTC 19 March 2019
Temperature: 17.0°C (63°F)
Dewpoint: 12.0°C (54°F) [RH = 72%]
Pressure (altimeter): 30.00 inches Hg (1016.0 mb)
Winds: from the NE (40 degrees) at 3 MPH (3 knots; 1.5 m/s)
Visibility: 6 or more miles (10+ km)
Ceiling: at least 12,000 feet AGL
Clouds: few clouds at 3000 feet AGL
Weather: no significant weather observed at this time

METAR text: ROAH 192030Z 05002KT 9999 FEW030 18/11 Q1016 RMK 1CU030 A3002
Conditions at: ROAH (NAHA (CIV/JASDF), JP) observed 2030 UTC 19 March 2019
Temperature: 18.0°C (64°F)
Dewpoint: 11.0°C (52°F) [RH = 64%]
Pressure (altimeter): 30.00 inches Hg (1016.0 mb)
Winds: from the NE (50 degrees) at 2 MPH (2 knots; 1.0 m/s)
Visibility: 6 or more miles (10+ km)
Ceiling: at least 12,000 feet AGL
Clouds: few clouds at 3000 feet AGL
Weather: no significant weather observed at this time

METAR text: ROAH 192000Z 05003KT 9999 FEW030 17/11 Q1016 RMK 1CU030 A3002
Conditions at: ROAH (NAHA (CIV/JASDF), JP) observed 2000 UTC 19 March 2019
Temperature: 17.0°C (63°F)
Dewpoint: 11.0°C (52°F) [RH = 68%]
Pressure (altimeter): 30.00 inches Hg (1016.0 mb)
Winds: from the NE (50 degrees) at 3 MPH (3 knots; 1.5 m/s)
Visibility: 6 or more miles (10+ km)
Ceiling: at least 12,000 feet AGL
Clouds: few clouds at 3000 feet AGL
Weather: no significant weather observed at this time

METAR text: ROAH 191930Z 05003KT 9999 FEW030 17/11 Q1016 RMK 1CU030 A3002
Conditions at: ROAH (NAHA (CIV/JASDF), JP) observed 1930 UTC 19 March 2019
Temperature: 17.0°C (63°F)
Dewpoint: 11.0°C (52°F) [RH = 68%]
Pressure (altimeter): 30.00 inches Hg (1016.0 mb)
Winds: from the NE (50 degrees) at 3 MPH (3 knots; 1.5 m/s)
Visibility: 6 or more miles (10+ km)
Ceiling: at least 12,000 feet AGL
Clouds: few clouds at 3000 feet AGL
Weather: no significant weather observed at this time

METAR text: ROAH 191900Z 04002KT 9999 FEW030 18/11 Q1016 RMK 1CU030 A3001
Conditions at: ROAH (NAHA (CIV/JASDF), JP) observed 1900 UTC 19 March 2019
Temperature: 18.0°C (64°F)
Dewpoint: 11.0°C (52°F) [RH = 64%]
Pressure (altimeter): 30.00 inches Hg (1016.0 mb)
Winds: from the NE (40 degrees) at 2 MPH (2 knots; 1.0 m/s)
Visibility: 6 or more miles (10+ km)
Ceiling: at least 12,000 feet AGL
Clouds: few clouds at 3000 feet AGL
Weather: no significant weather observed at this time

METAR text: ROAH 191830Z 05003KT 9999 FEW030 18/11 Q1016 RMK 1CU030 A3001
Conditions at: ROAH (NAHA (CIV/JASDF), JP) observed 1830 UTC 19 March 2019
Temperature: 18.0°C (64°F)
Dewpoint: 11.0°C (52°F) [RH = 64%]
Pressure (altimeter): 30.00 inches Hg (1016.0 mb)
Winds: from the NE (50 degrees) at 3 MPH (3 knots; 1.5 m/s)
Visibility: 6 or more miles (10+ km)
Ceiling: at least 12,000 feet AGL
Clouds: few clouds at 3000 feet AGL
Weather: no significant weather observed at this time

METAR text: ROAH 191800Z 04005KT 9999 FEW030 18/12 Q1016 RMK 1CU030 A3001
Conditions at: ROAH (NAHA (CIV/JASDF), JP) observed 1800 UTC 19 March 2019
Temperature: 18.0°C (64°F)
Dewpoint: 12.0°C (54°F) [RH = 68%]
Pressure (altimeter): 30.00 inches Hg (1016.0 mb)
Winds: from the NE (40 degrees) at 6 MPH (5 knots; 2.6 m/s)
Visibility: 6 or more miles (10+ km)
Ceiling: at least 12,000 feet AGL
Clouds: few clouds at 3000 feet AGL
Weather: no significant weather observed at this time

METAR text: ROAH 191730Z 05003KT 9999 FEW030 18/12 Q1016 RMK 1CU030 A3002
Conditions at: ROAH (NAHA (CIV/JASDF), JP) observed 1730 UTC 19 March 2019
Temperature: 18.0°C (64°F)
Dewpoint: 12.0°C (54°F) [RH = 68%]
Pressure (altimeter): 30.00 inches Hg (1016.0 mb)
Winds: from the NE (50 degrees) at 3 MPH (3 knots; 1.5 m/s)
Visibility: 6 or more miles (10+ km)
Ceiling: at least 12,000 feet AGL
Clouds: few clouds at 3000 feet AGL
Weather: no significant weather observed at this time

METAR text: ROAH 191700Z 04003KT 9999 FEW030 18/12 Q1017 RMK 1CU030 A3003
Conditions at: ROAH (NAHA (CIV/JASDF), JP) observed 1700 UTC 19 March 2019
Temperature: 18.0°C (64°F)
Dewpoint: 12.0°C (54°F) [RH = 68%]
Pressure (altimeter): 30.03 inches Hg (1017.0 mb)
Winds: from the NE (40 degrees) at 3 MPH (3 knots; 1.5 m/s)
Visibility: 6 or more miles (10+ km)
Ceiling: at least 12,000 feet AGL
Clouds: few clouds at 3000 feet AGL
Weather: no significant weather observed at this time

METAR text: ROAH 191630Z 04002KT 9999 FEW030 18/12 Q1017 RMK 1CU030 A3004
Conditions at: ROAH (NAHA (CIV/JASDF), JP) observed 1630 UTC 19 March 2019
Temperature: 18.0°C (64°F)
Dewpoint: 12.0°C (54°F) [RH = 68%]
Pressure (altimeter): 30.03 inches Hg (1017.0 mb)
Winds: from the NE (40 degrees) at 2 MPH (2 knots; 1.0 m/s)
Visibility: 6 or more miles (10+ km)
Ceiling: at least 12,000 feet AGL
Clouds: few clouds at 3000 feet AGL
Weather: no significant weather observed at this time

METAR text: ROAH 191600Z 05002KT 9999 FEW030 18/12 Q1017 RMK 1CU030 A3005
Conditions at: ROAH (NAHA (CIV/JASDF), JP) observed 1600 UTC 19 March 2019
Temperature: 18.0°C (64°F)
Dewpoint: 12.0°C (54°F) [RH = 68%]
Pressure (altimeter): 30.03 inches Hg (1017.0 mb)
Winds: from the NE (50 degrees) at 2 MPH (2 knots; 1.0 m/s)
Visibility: 6 or more miles (10+ km)
Ceiling: at least 12,000 feet AGL
Clouds: few clouds at 3000 feet AGL
Weather: no significant weather observed at this time

METAR text: ROAH 191530Z 05003KT 9999 FEW030 18/12 Q1017 RMK 1CU030 A3005
Conditions at: ROAH (NAHA (CIV/JASDF), JP) observed 1530 UTC 19 March 2019
Temperature: 18.0°C (64°F)
Dewpoint: 12.0°C (54°F) [RH = 68%]
Pressure (altimeter): 30.03 inches Hg (1017.0 mb)
Winds: from the NE (50 degrees) at 3 MPH (3 knots; 1.5 m/s)
Visibility: 6 or more miles (10+ km)
Ceiling: at least 12,000 feet AGL
Clouds: few clouds at 3000 feet AGL
Weather: no significant weather observed at this time

METAR text: ROAH 191500Z 04004KT 9999 FEW030 18/12 Q1017 RMK 1CU030 A3006
Conditions at: ROAH (NAHA (CIV/JASDF), JP) observed 1500 UTC 19 March 2019
Temperature: 18.0°C (64°F)
Dewpoint: 12.0°C (54°F) [RH = 68%]
Pressure (altimeter): 30.03 inches Hg (1017.0 mb)
Winds: from the NE (40 degrees) at 5 MPH (4 knots; 2.1 m/s)
Visibility: 6 or more miles (10+ km)
Ceiling: at least 12,000 feet AGL
Clouds: few clouds at 3000 feet AGL
Weather: no significant weather observed at this time

METAR text: ROAH 191430Z 05005KT 9999 FEW030 19/12 Q1018 RMK 1CU030 A3006
Conditions at: ROAH (NAHA (CIV/JASDF), JP) observed 1430 UTC 19 March 2019
Temperature: 19.0°C (66°F)
Dewpoint: 12.0°C (54°F) [RH = 64%]
Pressure (altimeter): 30.06 inches Hg (1018.0 mb)
Winds: from the NE (50 degrees) at 6 MPH (5 knots; 2.6 m/s)
Visibility: 6 or more miles (10+ km)
Ceiling: at least 12,000 feet AGL
Clouds: few clouds at 3000 feet AGL
Weather: no significant weather observed at this time

METAR text: ROAH 191400Z 06004KT 9999 FEW030 19/12 Q1018 RMK 1CU030 A3006
Conditions at: ROAH (NAHA (CIV/JASDF), JP) observed 1400 UTC 19 March 2019
Temperature: 19.0°C (66°F)
Dewpoint: 12.0°C (54°F) [RH = 64%]
Pressure (altimeter): 30.06 inches Hg (1018.0 mb)
Winds: from the ENE (60 degrees) at 5 MPH (4 knots; 2.1 m/s)
Visibility: 6 or more miles (10+ km)
Ceiling: at least 12,000 feet AGL
Clouds: few clouds at 3000 feet AGL
Weather: no significant weather observed at this time

METAR text: ROAH 191330Z 06004KT 020V080 9999 FEW030 19/12 Q1018 RMK 1CU030 A3006
Conditions at: ROAH (NAHA (CIV/JASDF), JP) observed 1330 UTC 19 March 2019
Temperature: 19.0°C (66°F)
Dewpoint: 12.0°C (54°F) [RH = 64%]
Pressure (altimeter): 30.06 inches Hg (1018.0 mb)
Winds: from the ENE (60 degrees) at 5 MPH (4 knots; 2.1 m/s)
Visibility: 6 or more miles (10+ km)
Ceiling: at least 12,000 feet AGL
Clouds: few clouds at 3000 feet AGL
Weather: no significant weather observed at this time

METAR text: ROAH 191300Z 06003KT 9999 FEW030 19/13 Q1018 RMK 1CU030 A3006
Conditions at: ROAH (NAHA (CIV/JASDF), JP) observed 1300 UTC 19 March 2019
Temperature: 19.0°C (66°F)
Dewpoint: 13.0°C (55°F) [RH = 68%]
Pressure (altimeter): 30.06 inches Hg (1018.0 mb)
Winds: from the ENE (60 degrees) at 3 MPH (3 knots; 1.5 m/s)
Visibility: 6 or more miles (10+ km)
Ceiling: at least 12,000 feet AGL
Clouds: few clouds at 3000 feet AGL
Weather: no significant weather observed at this time

METAR text: ROAH 191230Z 06004KT 9999 FEW030 19/13 Q1018 RMK 1CU030 A3006
Conditions at: ROAH (NAHA (CIV/JASDF), JP) observed 1230 UTC 19 March 2019
Temperature: 19.0°C (66°F)
Dewpoint: 13.0°C (55°F) [RH = 68%]
Pressure (altimeter): 30.06 inches Hg (1018.0 mb)
Winds: from the ENE (60 degrees) at 5 MPH (4 knots; 2.1 m/s)
Visibility: 6 or more miles (10+ km)
Ceiling: at least 12,000 feet AGL
Clouds: few clouds at 3000 feet AGL
Weather: no significant weather observed at this time

METAR text: ROAH 191200Z 08002KT 9999 FEW027 19/13 Q1017 RMK 1CU027 A3006
Conditions at: ROAH (NAHA (CIV/JASDF), JP) observed 1200 UTC 19 March 2019
Temperature: 19.0°C (66°F)
Dewpoint: 13.0°C (55°F) [RH = 68%]
Pressure (altimeter): 30.03 inches Hg (1017.0 mb)
Winds: from the E (80 degrees) at 2 MPH (2 knots; 1.0 m/s)
Visibility: 6 or more miles (10+ km)
Ceiling: at least 12,000 feet AGL
Clouds: few clouds at 2700 feet AGL
Weather: no significant weather observed at this time

METAR text: ROAH 191130Z 07005KT 030V110 9999 FEW027 SCT035 20/13 Q1017 RMK 1CU027 3CU035 A3005
Conditions at: ROAH (NAHA (CIV/JASDF), JP) observed 1130 UTC 19 March 2019
Temperature: 20.0°C (68°F)
Dewpoint: 13.0°C (55°F) [RH = 64%]
Pressure (altimeter): 30.03 inches Hg (1017.0 mb)
Winds: from the ENE (70 degrees) at 6 MPH (5 knots; 2.6 m/s)
Visibility: 6 or more miles (10+ km)
Ceiling: at least 12,000 feet AGL
Clouds: few clouds at 2700 feet AGL
scattered clouds at 3500 feet AGL
Weather: no significant weather observed at this time

METAR text: ROAH 191100Z 05005KT 330V080 9999 BKN027 20/13 Q1017 RMK 5CU027 A3003
Conditions at: ROAH (NAHA (CIV/JASDF), JP) observed 1100 UTC 19 March 2019
Temperature: 20.0°C (68°F)
Dewpoint: 13.0°C (55°F) [RH = 64%]
Pressure (altimeter): 30.03 inches Hg (1017.0 mb)
Winds: from the NE (50 degrees) at 6 MPH (5 knots; 2.6 m/s)
Visibility: 6 or more miles (10+ km)
Ceiling: 2700 feet AGL
Clouds: broken clouds at 2700 feet AGL
Weather: no significant weather observed at this time

METAR text: ROAH 191030Z 03006KT 9999 FEW030 20/13 Q1016 RMK 1CU030 A3003
Conditions at: ROAH (NAHA (CIV/JASDF), JP) observed 1030 UTC 19 March 2019
Temperature: 20.0°C (68°F)
Dewpoint: 13.0°C (55°F) [RH = 64%]
Pressure (altimeter): 30.00 inches Hg (1016.0 mb)
Winds: from the NNE (30 degrees) at 7 MPH (6 knots; 3.1 m/s)
Visibility: 6 or more miles (10+ km)
Ceiling: at least 12,000 feet AGL
Clouds: few clouds at 3000 feet AGL
Weather: no significant weather observed at this time

METAR text: ROAH 191000Z 02009KT 9999 FEW030 19/12 Q1016 RMK 1CU030 A3002
Conditions at: ROAH (NAHA (CIV/JASDF), JP) observed 1000 UTC 19 March 2019
Temperature: 19.0°C (66°F)
Dewpoint: 12.0°C (54°F) [RH = 64%]
Pressure (altimeter): 30.00 inches Hg (1016.0 mb)
Winds: from the NNE (20 degrees) at 10 MPH (9 knots; 4.6 m/s)
Visibility: 6 or more miles (10+ km)
Ceiling: at least 12,000 feet AGL
Clouds: few clouds at 3000 feet AGL
Weather: no significant weather observed at this time

METAR text: ROAH 190930Z 01010KT 320V050 9999 FEW030 20/12 Q1016 RMK 2CU030 A3002
Conditions at: ROAH (NAHA (CIV/JASDF), JP) observed 0930 UTC 19 March 2019
Temperature: 20.0°C (68°F)
Dewpoint: 12.0°C (54°F) [RH = 60%]
Pressure (altimeter): 30.00 inches Hg (1016.0 mb)
Winds: from the N (10 degrees) at 12 MPH (10 knots; 5.1 m/s)
Visibility: 6 or more miles (10+ km)
Ceiling: at least 12,000 feet AGL
Clouds: few clouds at 3000 feet AGL
Weather: no significant weather observed at this time

METAR text: ROAH 190900Z 02010KT 340V060 9999 FEW030 20/12 Q1016 RMK 2CU030 A3002
Conditions at: ROAH (NAHA (CIV/JASDF), JP) observed 0900 UTC 19 March 2019
Temperature: 20.0°C (68°F)
Dewpoint: 12.0°C (54°F) [RH = 60%]
Pressure (altimeter): 30.00 inches Hg (1016.0 mb)
Winds: from the NNE (20 degrees) at 12 MPH (10 knots; 5.1 m/s)
Visibility: 6 or more miles (10+ km)
Ceiling: at least 12,000 feet AGL
Clouds: few clouds at 3000 feet AGL
Weather: no significant weather observed at this time

METAR text: ROAH 190830Z 36012KT 9999 FEW027 SCT030 20/13 Q1016 RMK 2CU027 3CU030 A3002
Conditions at: ROAH (NAHA (CIV/JASDF), JP) observed 0830 UTC 19 March 2019
Temperature: 20.0°C (68°F)
Dewpoint: 13.0°C (55°F) [RH = 64%]
Pressure (altimeter): 30.00 inches Hg (1016.0 mb)
Winds: from the N (360 degrees) at 14 MPH (12 knots; 6.2 m/s)
Visibility: 6 or more miles (10+ km)
Ceiling: at least 12,000 feet AGL
Clouds: few clouds at 2700 feet AGL
scattered clouds at 3000 feet AGL
Weather: no significant weather observed at this time

METAR text: ROAH 190800Z 35012KT 9999 FEW027 20/12 Q1016 RMK 2CU027 A3001
Conditions at: ROAH (NAHA (CIV/JASDF), JP) observed 0800 UTC 19 March 2019
Temperature: 20.0°C (68°F)
Dewpoint: 12.0°C (54°F) [RH = 60%]
Pressure (altimeter): 30.00 inches Hg (1016.0 mb)
Winds: from the N (350 degrees) at 14 MPH (12 knots; 6.2 m/s)
Visibility: 6 or more miles (10+ km)
Ceiling: at least 12,000 feet AGL
Clouds: few clouds at 2700 feet AGL
Weather: no significant weather observed at this time

METAR text: ROAH 190730Z 35014KT 9999 SCT030 20/13 Q1016 RMK 4CU030 A3000
Conditions at: ROAH (NAHA (CIV/JASDF), JP) observed 0730 UTC 19 March 2019
Temperature: 20.0°C (68°F)
Dewpoint: 13.0°C (55°F) [RH = 64%]
Pressure (altimeter): 30.00 inches Hg (1016.0 mb)
Winds: from the N (350 degrees) at 16 MPH (14 knots; 7.2 m/s)
Visibility: 6 or more miles (10+ km)
Ceiling: at least 12,000 feet AGL
Clouds: scattered clouds at 3000 feet AGL
Weather: no significant weather observed at this time

METAR text: ROAH 190700Z 35016KT 9999 SCT030 21/13 Q1016 RMK 3CU030 A3000
Conditions at: ROAH (NAHA (CIV/JASDF), JP) observed 0700 UTC 19 March 2019
Temperature: 21.0°C (70°F)
Dewpoint: 13.0°C (55°F) [RH = 60%]
Pressure (altimeter): 30.00 inches Hg (1016.0 mb)
Winds: from the N (350 degrees) at 18 MPH (16 knots; 8.2 m/s)
Visibility: 6 or more miles (10+ km)
Ceiling: at least 12,000 feet AGL
Clouds: scattered clouds at 3000 feet AGL
Weather: no significant weather observed at this time

METAR text: ROAH 190630Z 36015KT 9999 FEW030 20/13 Q1016 RMK 2CU030 A3000
Conditions at: ROAH (NAHA (CIV/JASDF), JP) observed 0630 UTC 19 March 2019
Temperature: 20.0°C (68°F)
Dewpoint: 13.0°C (55°F) [RH = 64%]
Pressure (altimeter): 30.00 inches Hg (1016.0 mb)
Winds: from the N (360 degrees) at 17 MPH (15 knots; 7.7 m/s)
Visibility: 6 or more miles (10+ km)
Ceiling: at least 12,000 feet AGL
Clouds: few clouds at 3000 feet AGL
Weather: no significant weather observed at this time

METAR text: ROAH 190600Z 35016KT 9999 FEW030 21/13 Q1015 RMK 2CU030 A3000
Conditions at: ROAH (NAHA (CIV/JASDF), JP) observed 0600 UTC 19 March 2019
Temperature: 21.0°C (70°F)
Dewpoint: 13.0°C (55°F) [RH = 60%]
Pressure (altimeter): 29.97 inches Hg (1015.0 mb)
Winds: from the N (350 degrees) at 18 MPH (16 knots; 8.2 m/s)
Visibility: 6 or more miles (10+ km)
Ceiling: at least 12,000 feet AGL
Clouds: few clouds at 3000 feet AGL
Weather: no significant weather observed at this time

METAR text: ROAH 190530Z 34017KT 9999 FEW025 SCT070 21/14 Q1016 RMK 1CU025 3AC070 A3000
Conditions at: ROAH (NAHA (CIV/JASDF), JP) observed 0530 UTC 19 March 2019
Temperature: 21.0°C (70°F)
Dewpoint: 14.0°C (57°F) [RH = 64%]
Pressure (altimeter): 30.00 inches Hg (1016.0 mb)
Winds: from the NNW (340 degrees) at 20 MPH (17 knots; 8.7 m/s)
Visibility: 6 or more miles (10+ km)
Ceiling: at least 12,000 feet AGL
Clouds: few clouds at 2500 feet AGL
scattered clouds at 7000 feet AGL
Weather: no significant weather observed at this time

METAR text: ROAH 190500Z 34015KT 9999 FEW025 SCT070 21/14 Q1016 RMK 1CU025 3AC070 A3001
Conditions at: ROAH (NAHA (CIV/JASDF), JP) observed 0500 UTC 19 March 2019
Temperature: 21.0°C (70°F)
Dewpoint: 14.0°C (57°F) [RH = 64%]
Pressure (altimeter): 30.00 inches Hg (1016.0 mb)
Winds: from the NNW (340 degrees) at 17 MPH (15 knots; 7.7 m/s)
Visibility: 6 or more miles (10+ km)
Ceiling: at least 12,000 feet AGL
Clouds: few clouds at 2500 feet AGL
scattered clouds at 7000 feet AGL
Weather: no significant weather observed at this time

METAR text: ROAH 190430Z 34016KT 9999 FEW025 SCT070 21/13 Q1016 RMK 1CU025 3AC070 A3003
Conditions at: ROAH (NAHA (CIV/JASDF), JP) observed 0430 UTC 19 March 2019
Temperature: 21.0°C (70°F)
Dewpoint: 13.0°C (55°F) [RH = 60%]
Pressure (altimeter): 30.00 inches Hg (1016.0 mb)
Winds: from the NNW (340 degrees) at 18 MPH (16 knots; 8.2 m/s)
Visibility: 6 or more miles (10+ km)
Ceiling: at least 12,000 feet AGL
Clouds: few clouds at 2500 feet AGL
scattered clouds at 7000 feet AGL
Weather: no significant weather observed at this time

METAR text: ROAH 190400Z 34016KT 9999 FEW020 SCT025 BKN070 20/14 Q1017 RMK 1CU020 4CU025 5AC070 A3004
Conditions at: ROAH (NAHA (CIV/JASDF), JP) observed 0400 UTC 19 March 2019
Temperature: 20.0°C (68°F)
Dewpoint: 14.0°C (57°F) [RH = 68%]
Pressure (altimeter): 30.03 inches Hg (1017.0 mb)
Winds: from the NNW (340 degrees) at 18 MPH (16 knots; 8.2 m/s)
Visibility: 6 or more miles (10+ km)
Ceiling: 7000 feet AGL
Clouds: few clouds at 2000 feet AGL
scattered clouds at 2500 feet AGL
broken clouds at 7000 feet AGL
Weather: no significant weather observed at this time

METAR text: ROAH 190330Z 33016KT 9999 FEW020 SCT025 BKN070 21/14 Q1017 RMK 1CU020 4CU025 6AC070 A3004
Conditions at: ROAH (NAHA (CIV/JASDF), JP) observed 0330 UTC 19 March 2019
Temperature: 21.0°C (70°F)
Dewpoint: 14.0°C (57°F) [RH = 64%]
Pressure (altimeter): 30.03 inches Hg (1017.0 mb)
Winds: from the NNW (330 degrees) at 18 MPH (16 knots; 8.2 m/s)
Visibility: 6 or more miles (10+ km)
Ceiling: 7000 feet AGL
Clouds: few clouds at 2000 feet AGL
scattered clouds at 2500 feet AGL
broken clouds at 7000 feet AGL
Weather: no significant weather observed at this time

METAR text: ROAH 190300Z 34016KT 9999 FEW020 SCT025 BKN050 21/14 Q1017 RMK 1CU020 4CU025 6SC050 A3005
Conditions at: ROAH (NAHA (CIV/JASDF), JP) observed 0300 UTC 19 March 2019
Temperature: 21.0°C (70°F)
Dewpoint: 14.0°C (57°F) [RH = 64%]
Pressure (altimeter): 30.03 inches Hg (1017.0 mb)
Winds: from the NNW (340 degrees) at 18 MPH (16 knots; 8.2 m/s)
Visibility: 6 or more miles (10+ km)
Ceiling: 5000 feet AGL
Clouds: few clouds at 2000 feet AGL
scattered clouds at 2500 feet AGL
broken clouds at 5000 feet AGL
Weather: no significant weather observed at this time

METAR text: ROAH 190230Z 34016KT 9999 FEW020 SCT025 BKN050 21/14 Q1017 RMK 1CU020 3CU025 6SC050 A3005
Conditions at: ROAH (NAHA (CIV/JASDF), JP) observed 0230 UTC 19 March 2019
Temperature: 21.0°C (70°F)
Dewpoint: 14.0°C (57°F) [RH = 64%]
Pressure (altimeter): 30.03 inches Hg (1017.0 mb)
Winds: from the NNW (340 degrees) at 18 MPH (16 knots; 8.2 m/s)
Visibility: 6 or more miles (10+ km)
Ceiling: 5000 feet AGL
Clouds: few clouds at 2000 feet AGL
scattered clouds at 2500 feet AGL
broken clouds at 5000 feet AGL
Weather: no significant weather observed at this time

METAR text: ROAH 190200Z 34015KT 9999 FEW020 SCT025 BKN050 21/14 Q1017 RMK 1CU020 3CU025 6SC050 A3005
Conditions at: ROAH (NAHA (CIV/JASDF), JP) observed 0200 UTC 19 March 2019
Temperature: 21.0°C (70°F)
Dewpoint: 14.0°C (57°F) [RH = 64%]
Pressure (altimeter): 30.03 inches Hg (1017.0 mb)
Winds: from the NNW (340 degrees) at 17 MPH (15 knots; 7.7 m/s)
Visibility: 6 or more miles (10+ km)
Ceiling: 5000 feet AGL
Clouds: few clouds at 2000 feet AGL
scattered clouds at 2500 feet AGL
broken clouds at 5000 feet AGL
Weather: no significant weather observed at this time

METAR text: ROAH 190130Z 33014KT 9999 FEW020 SCT025 BKN050 20/14 Q1017 RMK 1CU020 4CU025 6SC050 A3005
Conditions at: ROAH (NAHA (CIV/JASDF), JP) observed 0130 UTC 19 March 2019
Temperature: 20.0°C (68°F)
Dewpoint: 14.0°C (57°F) [RH = 68%]
Pressure (altimeter): 30.03 inches Hg (1017.0 mb)
Winds: from the NNW (330 degrees) at 16 MPH (14 knots; 7.2 m/s)
Visibility: 6 or more miles (10+ km)
Ceiling: 5000 feet AGL
Clouds: few clouds at 2000 feet AGL
scattered clouds at 2500 feet AGL
broken clouds at 5000 feet AGL
Weather: no significant weather observed at this time

METAR text: ROAH 190100Z 34015KT 9999 FEW020 SCT025 BKN050 21/14 Q1017 RMK 1CU020 3CU025 6SC050 A3005
Conditions at: ROAH (NAHA (CIV/JASDF), JP) observed 0100 UTC 19 March 2019
Temperature: 21.0°C (70°F)
Dewpoint: 14.0°C (57°F) [RH = 64%]
Pressure (altimeter): 30.03 inches Hg (1017.0 mb)
Winds: from the NNW (340 degrees) at 17 MPH (15 knots; 7.7 m/s)
Visibility: 6 or more miles (10+ km)
Ceiling: 5000 feet AGL
Clouds: few clouds at 2000 feet AGL
scattered clouds at 2500 feet AGL
broken clouds at 5000 feet AGL
Weather: no significant weather observed at this time

METAR text: ROAH 190030Z 33014KT 9999 FEW020 SCT025 BKN050 21/14 Q1017 RMK 1CU020 3CU025 5SC050 A3004
Conditions at: ROAH (NAHA (CIV/JASDF), JP) observed 0030 UTC 19 March 2019
Temperature: 21.0°C (70°F)
Dewpoint: 14.0°C (57°F) [RH = 64%]
Pressure (altimeter): 30.03 inches Hg (1017.0 mb)
Winds: from the NNW (330 degrees) at 16 MPH (14 knots; 7.2 m/s)
Visibility: 6 or more miles (10+ km)
Ceiling: 5000 feet AGL
Clouds: few clouds at 2000 feet AGL
scattered clouds at 2500 feet AGL
broken clouds at 5000 feet AGL
Weather: no significant weather observed at this time

METAR text: ROAH 190000Z 33014KT 9999 FEW020 SCT025 BKN050 20/14 Q1017 RMK 1CU020 3CU025 5SC050 A3003
Conditions at: ROAH (NAHA (CIV/JASDF), JP) observed 0000 UTC 19 March 2019
Temperature: 20.0°C (68°F)
Dewpoint: 14.0°C (57°F) [RH = 68%]
Pressure (altimeter): 30.03 inches Hg (1017.0 mb)
Winds: from the NNW (330 degrees) at 16 MPH (14 knots; 7.2 m/s)
Visibility: 6 or more miles (10+ km)
Ceiling: 5000 feet AGL
Clouds: few clouds at 2000 feet AGL
scattered clouds at 2500 feet AGL
broken clouds at 5000 feet AGL
Weather: no significant weather observed at this time

METAR text: ROAH 182330Z 34014KT 9999 FEW020 SCT025 BKN050 20/15 Q1016 RMK 1CU020 4CU025 6SC050 A3001
Conditions at: ROAH (NAHA (CIV/JASDF), JP) observed 2330 UTC 18 March 2019
Temperature: 20.0°C (68°F)
Dewpoint: 15.0°C (59°F) [RH = 73%]
Pressure (altimeter): 30.00 inches Hg (1016.0 mb)
Winds: from the NNW (340 degrees) at 16 MPH (14 knots; 7.2 m/s)
Visibility: 6 or more miles (10+ km)
Ceiling: 5000 feet AGL
Clouds: few clouds at 2000 feet AGL
scattered clouds at 2500 feet AGL
broken clouds at 5000 feet AGL
Weather: no significant weather observed at this time

METAR text: ROAH 182300Z 33015KT 9999 FEW020 SCT025 BKN042 20/15 Q1016 RMK 1CU020 4CU025 6SC042 A3000
Conditions at: ROAH (NAHA (CIV/JASDF), JP) observed 2300 UTC 18 March 2019
Temperature: 20.0°C (68°F)
Dewpoint: 15.0°C (59°F) [RH = 73%]
Pressure (altimeter): 30.00 inches Hg (1016.0 mb)
Winds: from the NNW (330 degrees) at 17 MPH (15 knots; 7.7 m/s)
Visibility: 6 or more miles (10+ km)
Ceiling: 4200 feet AGL
Clouds: few clouds at 2000 feet AGL
scattered clouds at 2500 feet AGL
broken clouds at 4200 feet AGL
Weather: no significant weather observed at this time

METAR text: ROAH 182230Z 33016KT 9999 FEW020 SCT025 BKN040 20/14 Q1015 RMK 1CU020 3CU025 6SC040 A2999
Conditions at: ROAH (NAHA (CIV/JASDF), JP) observed 2230 UTC 18 March 2019
Temperature: 20.0°C (68°F)
Dewpoint: 14.0°C (57°F) [RH = 68%]
Pressure (altimeter): 29.97 inches Hg (1015.0 mb)
Winds: from the NNW (330 degrees) at 18 MPH (16 knots; 8.2 m/s)
Visibility: 6 or more miles (10+ km)
Ceiling: 4000 feet AGL
Clouds: few clouds at 2000 feet AGL
scattered clouds at 2500 feet AGL
broken clouds at 4000 feet AGL
Weather: no significant weather observed at this time

METAR text: ROAH 182200Z 33015KT 9999 FEW020 SCT025 BKN040 20/15 Q1015 RMK 2CU020 3CU025 5SC040 A2997
Conditions at: ROAH (NAHA (CIV/JASDF), JP) observed 2200 UTC 18 March 2019
Temperature: 20.0°C (68°F)
Dewpoint: 15.0°C (59°F) [RH = 73%]
Pressure (altimeter): 29.97 inches Hg (1015.0 mb)
Winds: from the NNW (330 degrees) at 17 MPH (15 knots; 7.7 m/s)
Visibility: 6 or more miles (10+ km)
Ceiling: 4000 feet AGL
Clouds: few clouds at 2000 feet AGL
scattered clouds at 2500 feet AGL
broken clouds at 4000 feet AGL
Weather: no significant weather observed at this time

METAR text: ROAH 182130Z 33015KT 9999 SCT020 SCT035 20/16 Q1014 RMK 3CU020 4SC035 A2996
Conditions at: ROAH (NAHA (CIV/JASDF), JP) observed 2130 UTC 18 March 2019
Temperature: 20.0°C (68°F)
Dewpoint: 16.0°C (61°F) [RH = 78%]
Pressure (altimeter): 29.94 inches Hg (1014.0 mb)
Winds: from the NNW (330 degrees) at 17 MPH (15 knots; 7.7 m/s)
Visibility: 6 or more miles (10+ km)
Ceiling: at least 12,000 feet AGL
Clouds: scattered clouds at 2000 feet AGL
scattered clouds at 3500 feet AGL
Weather: no significant weather observed at this time

METAR text: ROAH 182100Z 33015KT 9999 FEW020 SCT025 20/16 Q1014 RMK 2CU020 3CU025 A2995
Conditions at: ROAH (NAHA (CIV/JASDF), JP) observed 2100 UTC 18 March 2019
Temperature: 20.0°C (68°F)
Dewpoint: 16.0°C (61°F) [RH = 78%]
Pressure (altimeter): 29.94 inches Hg (1014.0 mb)
Winds: from the NNW (330 degrees) at 17 MPH (15 knots; 7.7 m/s)
Visibility: 6 or more miles (10+ km)
Ceiling: at least 12,000 feet AGL
Clouds: few clouds at 2000 feet AGL
scattered clouds at 2500 feet AGL
Weather: no significant weather observed at this time

METAR text: ROAH 182030Z 33014KT 9999 FEW020 SCT060 20/16 Q1013 RMK 2CU020 4SC060 A2993
Conditions at: ROAH (NAHA (CIV/JASDF), JP) observed 2030 UTC 18 March 2019
Temperature: 20.0°C (68°F)
Dewpoint: 16.0°C (61°F) [RH = 78%]
Pressure (altimeter): 29.91 inches Hg (1013.0 mb)
Winds: from the NNW (330 degrees) at 16 MPH (14 knots; 7.2 m/s)
Visibility: 6 or more miles (10+ km)
Ceiling: at least 12,000 feet AGL
Clouds: few clouds at 2000 feet AGL
scattered clouds at 6000 feet AGL
Weather: no significant weather observed at this time

METAR text: ROAH 182000Z 33014KT 9999 FEW020 BKN050 21/16 Q1013 RMK 2CU020 7SC050 A2993
Conditions at: ROAH (NAHA (CIV/JASDF), JP) observed 2000 UTC 18 March 2019
Temperature: 21.0°C (70°F)
Dewpoint: 16.0°C (61°F) [RH = 73%]
Pressure (altimeter): 29.91 inches Hg (1013.0 mb)
Winds: from the NNW (330 degrees) at 16 MPH (14 knots; 7.2 m/s)
Visibility: 6 or more miles (10+ km)
Ceiling: 5000 feet AGL
Clouds: few clouds at 2000 feet AGL
broken clouds at 5000 feet AGL
Weather: no significant weather observed at this time

METAR text: ROAH 181930Z 32015KT 9999 FEW018 SCT025 BKN050 21/17 Q1013 RMK 2CU018 3CU025 6SC050 A2993
Conditions at: ROAH (NAHA (CIV/JASDF), JP) observed 1930 UTC 18 March 2019
Temperature: 21.0°C (70°F)
Dewpoint: 17.0°C (63°F) [RH = 78%]
Pressure (altimeter): 29.91 inches Hg (1013.0 mb)
Winds: from the NW (320 degrees) at 17 MPH (15 knots; 7.7 m/s)
Visibility: 6 or more miles (10+ km)
Ceiling: 5000 feet AGL
Clouds: few clouds at 1800 feet AGL
scattered clouds at 2500 feet AGL
broken clouds at 5000 feet AGL
Weather: no significant weather observed at this time

METAR text: ROAH 181900Z 32015KT 9999 FEW015 BKN025 21/17 Q1013 RMK 2CU015 6CU025 A2992
Conditions at: ROAH (NAHA (CIV/JASDF), JP) observed 1900 UTC 18 March 2019
Temperature: 21.0°C (70°F)
Dewpoint: 17.0°C (63°F) [RH = 78%]
Pressure (altimeter): 29.91 inches Hg (1013.0 mb)
Winds: from the NW (320 degrees) at 17 MPH (15 knots; 7.7 m/s)
Visibility: 6 or more miles (10+ km)
Ceiling: 2500 feet AGL
Clouds: few clouds at 1500 feet AGL
broken clouds at 2500 feet AGL
Weather: no significant weather observed at this time

METAR text: ROAH 181830Z 32015KT 9999 SCT015 BKN022 22/17 Q1013 RMK 4CU015 6CU022 A2992
Conditions at: ROAH (NAHA (CIV/JASDF), JP) observed 1830 UTC 18 March 2019
Temperature: 22.0°C (72°F)
Dewpoint: 17.0°C (63°F) [RH = 73%]
Pressure (altimeter): 29.91 inches Hg (1013.0 mb)
Winds: from the NW (320 degrees) at 17 MPH (15 knots; 7.7 m/s)
Visibility: 6 or more miles (10+ km)
Ceiling: 2200 feet AGL
Clouds: scattered clouds at 1500 feet AGL
broken clouds at 2200 feet AGL
Weather: no significant weather observed at this time

METAR text: ROAH 181800Z 31013KT 9999 FEW015 SCT020 BKN030 22/18 Q1013 RMK 2CU015 3CU020 5CU030 A2992
Conditions at: ROAH (NAHA (CIV/JASDF), JP) observed 1800 UTC 18 March 2019
Temperature: 22.0°C (72°F)
Dewpoint: 18.0°C (64°F) [RH = 78%]
Pressure (altimeter): 29.91 inches Hg (1013.0 mb)
Winds: from the NW (310 degrees) at 15 MPH (13 knots; 6.7 m/s)
Visibility: 6 or more miles (10+ km)
Ceiling: 3000 feet AGL
Clouds: few clouds at 1500 feet AGL
scattered clouds at 2000 feet AGL
broken clouds at 3000 feet AGL
Weather: no significant weather observed at this time

METAR text: ROAH 181738Z 24009KT 9999 -SHRA FEW009 SCT020 FEW025CB BKN035 20/18 Q1013 RMK 2CU009 4CU020 2CB025 6CU035 A2992 CB 10KM SE MOV E
Conditions at: ROAH (NAHA (CIV/JASDF), JP) observed 1738 UTC 18 March 2019
Temperature: 20.0°C (68°F)
Dewpoint: 18.0°C (64°F) [RH = 88%]
Pressure (altimeter): 29.91 inches Hg (1013.0 mb)
Winds: from the WSW (240 degrees) at 10 MPH (9 knots; 4.6 m/s)
Visibility: 6 or more miles (10+ km)
Ceiling: 3500 feet AGL
Clouds: few clouds at 900 feet AGL
scattered clouds at 2000 feet AGL
few clouds at 2500 feet AGL
broken clouds at 3500 feet AGL
Weather: -SHRA  (light rain showers)

METAR text: ROAH 181730Z 25014G24KT 210V300 3000 R36/0400VP1800U +SHRA FEW009 SCT020 SCT025CB BKN050 20/18 Q1013 RMK 2CU009 4CU020 3CB025 5SC050 A2992 CB OHD MOV E
Conditions at: ROAH (NAHA (CIV/JASDF), JP) observed 1730 UTC 18 March 2019
Temperature: 20.0°C (68°F)
Dewpoint: 18.0°C (64°F) [RH = 88%]
Pressure (altimeter): 29.91 inches Hg (1013.0 mb)
Winds: from the WSW (250 degrees) at 16 MPH (14 knots; 7.2 m/s)
gusting to 28 MPH (24 knots; 12.3 m/s)
Visibility: 1.86 miles (2.99 km)
Ceiling: 5000 feet AGL
Clouds: few clouds at 900 feet AGL
scattered clouds at 2000 feet AGL
scattered clouds at 2500 feet AGL
broken clouds at 5000 feet AGL
Weather: +SHRA  (heavy rain showers)

METAR text: ROAH 181700Z 20017KT 3000 +SHRA FEW015 SCT020 SCT025TCU BKN050 23/19 Q1012 RMK 2CU015 4CU020 3TCU025 6SC050 A2990 TCU 8KM W-N MOV E
Conditions at: ROAH (NAHA (CIV/JASDF), JP) observed 1700 UTC 18 March 2019
Temperature: 23.0°C (73°F)
Dewpoint: 19.0°C (66°F) [RH = 78%]
Pressure (altimeter): 29.88 inches Hg (1012.0 mb)
Winds: from the SSW (200 degrees) at 20 MPH (17 knots; 8.7 m/s)
Visibility: 1.86 miles (2.99 km)
Ceiling: 5000 feet AGL
Clouds: few clouds at 1500 feet AGL
scattered clouds at 2000 feet AGL
scattered clouds at 2500 feet AGL
broken clouds at 5000 feet AGL
Weather: +SHRA  (heavy rain showers)

METAR text: ROAH 181630Z 20019KT 9999 -SHRA FEW015 SCT030 FEW035TCU BKN050 23/19 Q1013 RMK 2CU015 3CU030 1TCU035 6SC050 A2991 TCU 20KM NW MOV E
Conditions at: ROAH (NAHA (CIV/JASDF), JP) observed 1630 UTC 18 March 2019
Temperature: 23.0°C (73°F)
Dewpoint: 19.0°C (66°F) [RH = 78%]
Pressure (altimeter): 29.91 inches Hg (1013.0 mb)
Winds: from the SSW (200 degrees) at 22 MPH (19 knots; 9.8 m/s)
Visibility: 6 or more miles (10+ km)
Ceiling: 5000 feet AGL
Clouds: few clouds at 1500 feet AGL
scattered clouds at 3000 feet AGL
few clouds at 3500 feet AGL
broken clouds at 5000 feet AGL
Weather: -SHRA  (light rain showers)

METAR text: ROAH 181600Z 20020KT 9999 VCSH FEW015 BKN050 23/19 Q1013 RMK 2CU015 6SC050 A2992
Conditions at: ROAH (NAHA (CIV/JASDF), JP) observed 1600 UTC 18 March 2019
Temperature: 23.0°C (73°F)
Dewpoint: 19.0°C (66°F) [RH = 78%]
Pressure (altimeter): 29.91 inches Hg (1013.0 mb)
Winds: from the SSW (200 degrees) at 23 MPH (20 knots; 10.3 m/s)
Visibility: 6 or more miles (10+ km)
Ceiling: 5000 feet AGL
Clouds: few clouds at 1500 feet AGL
broken clouds at 5000 feet AGL
Weather: VCSH  (showers in vicinity)

METAR text: ROAH 181530Z 20018KT 9999 FEW020 SCT030 BKN050 23/19 Q1013 RMK 1CU020 3CU030 6SC050 A2994
Conditions at: ROAH (NAHA (CIV/JASDF), JP) observed 1530 UTC 18 March 2019
Temperature: 23.0°C (73°F)
Dewpoint: 19.0°C (66°F) [RH = 78%]
Pressure (altimeter): 29.91 inches Hg (1013.0 mb)
Winds: from the SSW (200 degrees) at 21 MPH (18 knots; 9.3 m/s)
Visibility: 6 or more miles (10+ km)
Ceiling: 5000 feet AGL
Clouds: few clouds at 2000 feet AGL
scattered clouds at 3000 feet AGL
broken clouds at 5000 feet AGL
Weather: no significant weather observed at this time

Forecast for: ROAH (NAHA (CIV/JASDF), JP)
Text: TAF ROAH 192305Z 2000/2106 10008KT 9999 FEW030
Forecast period: 0000 to 0300 UTC 20 March 2019
Forecast type: FROM: standard forecast or significant change
Winds: from the E (100 degrees) at 9 MPH (8 knots; 4.1 m/s)
Visibility: 6 or more miles 10+ km)
Ceiling: at least 12,000 feet AGL
Clouds: few clouds at 3000 feet AGL
Weather: no significant weather forecast for this period
Text: BECMG 2003/2005 16012KT
Forecast period: 0300 UTC 20 March 2019 to 0600 UTC 21 March 2019
Forecast type: BECOMING: Conditions expected to become as follows by 0500 UTC 20 March 2019
Winds: from the SSE (160 degrees) at 14 MPH (12 knots; 6.2 m/s)
Visibility: 6 or more miles 10+ km)
Ceiling: at least 12,000 feet AGL
Clouds: few clouds at 3000 feet AGL
Weather: no significant weather forecast for this period